createdAt,value
2022-10-03T00:00:24.202Z,10.60
2022-10-03T00:05:54.149Z,10.60
2022-10-03T00:11:03.912Z,10.60
2022-10-03T00:16:29.340Z,10.50
2022-10-03T00:22:13.713Z,10.50
2022-10-03T00:27:40.411Z,10.40
2022-10-03T00:33:04.029Z,10.50
2022-10-03T00:38:29.460Z,10.40
2022-10-03T00:43:55.944Z,10.40
2022-10-03T00:49:26.420Z,10.40
2022-10-03T00:54:51.408Z,10.40
2022-10-03T01:00:18.307Z,10.40
2022-10-03T01:05:55.440Z,10.40
2022-10-03T01:11:25.100Z,10.40
2022-10-03T01:16:38.241Z,10.40
2022-10-03T01:22:04.287Z,10.30
2022-10-03T01:27:21.099Z,10.30
2022-10-03T01:32:39.745Z,10.20
2022-10-03T01:38:19.750Z,10.30
2022-10-03T01:43:38.321Z,10.20
2022-10-03T01:48:55.864Z,10.20
2022-10-03T01:54:21.648Z,10.20
2022-10-03T01:59:48.158Z,10.10
2022-10-03T02:05:13.328Z,10.00
2022-10-03T02:10:24.678Z,9.90
2022-10-03T02:15:35.482Z,9.90
2022-10-03T02:20:52.151Z,9.90
2022-10-03T02:26:03.999Z,9.90
2022-10-03T02:31:31.863Z,9.90
2022-10-03T02:36:52.602Z,9.90
2022-10-03T02:42:04.823Z,9.80
2022-10-03T02:47:35.580Z,9.80
2022-10-03T02:53:08.184Z,9.80
2022-10-03T02:58:36.574Z,9.90
2022-10-03T03:03:44.596Z,9.80
2022-10-03T03:09:15.952Z,9.80
2022-10-03T03:14:42.181Z,9.80
2022-10-03T03:19:52.791Z,9.80
2022-10-03T03:25:09.823Z,9.70
2022-10-03T03:30:20.906Z,9.70
2022-10-03T03:35:33.543Z,9.70
2022-10-03T03:40:48.017Z,9.70
2022-10-03T03:46:30.445Z,9.70
2022-10-03T03:51:57.342Z,9.60
2022-10-03T03:57:24.376Z,9.60
2022-10-03T04:02:56.970Z,9.60
2022-10-03T04:08:14.412Z,9.60
2022-10-03T04:13:42.428Z,9.50
2022-10-03T04:18:59.232Z,9.40
2022-10-03T04:24:22.505Z,9.40
2022-10-03T04:29:44.515Z,9.30
2022-10-03T04:34:53.397Z,9.40
2022-10-03T04:40:24.874Z,9.40
2022-10-03T04:45:43.122Z,9.40
2022-10-03T04:51:11.424Z,9.40
2022-10-03T04:56:25.894Z,9.40
2022-10-03T05:01:50.857Z,9.40
2022-10-03T05:07:14.716Z,9.30
2022-10-03T05:12:28.881Z,9.30
2022-10-03T05:18:05.341Z,9.30
2022-10-03T05:23:31.901Z,9.30
2022-10-03T05:28:43.595Z,9.20
2022-10-03T05:33:54.965Z,9.30
2022-10-03T05:39:23.832Z,9.30
2022-10-03T05:44:44.754Z,9.30
2022-10-03T05:49:54.209Z,9.30
2022-10-03T05:55:24.939Z,9.30
2022-10-03T06:00:52.973Z,9.30
2022-10-03T06:06:28.311Z,9.30
2022-10-03T06:11:51.696Z,9.30
2022-10-03T06:17:03.505Z,9.30
2022-10-03T06:22:31.317Z,9.40
2022-10-03T06:28:12.896Z,9.40
2022-10-03T06:33:57.782Z,9.40
2022-10-03T06:39:40.107Z,9.40
2022-10-03T06:45:19.752Z,9.40
2022-10-03T06:50:28.512Z,9.40
2022-10-03T06:55:47.286Z,9.40
2022-10-03T07:01:01.441Z,9.50
2022-10-03T07:06:26.668Z,9.60
2022-10-03T07:11:58.103Z,9.60
2022-10-03T07:17:10.014Z,9.60
2022-10-03T07:22:43.875Z,9.50
2022-10-03T07:28:09.145Z,9.60
2022-10-03T07:33:52.553Z,9.70
2022-10-03T07:39:19.856Z,9.80
2022-10-03T07:44:50.986Z,9.90
2022-10-03T07:50:34.199Z,10.10
2022-10-03T07:55:58.024Z,9.90
2022-10-03T08:01:27.250Z,9.90
2022-10-03T08:06:39.730Z,9.90
2022-10-03T08:12:02.986Z,9.90
2022-10-03T08:17:29.196Z,10.10
2022-10-03T08:22:38.034Z,10.20
2022-10-03T08:28:03.522Z,10.10
2022-10-03T08:33:17.226Z,10.00
2022-10-03T08:38:28.281Z,9.80
2022-10-03T08:43:59.782Z,9.80
2022-10-03T08:49:34.425Z,9.80
2022-10-03T08:55:02.313Z,9.70
2022-10-03T09:00:14.437Z,9.80
2022-10-03T09:05:27.060Z,9.80
2022-10-03T09:10:50.811Z,9.90
2022-10-03T09:16:36.234Z,10.00
2022-10-03T09:22:07.679Z,9.90
2022-10-03T09:27:44.515Z,9.70
2022-10-03T09:33:10.882Z,9.70
2022-10-03T09:38:25.438Z,9.80
2022-10-03T09:43:34.686Z,9.90
2022-10-03T09:48:56.227Z,9.90
2022-10-03T09:54:24.107Z,9.90
2022-10-03T09:59:50.256Z,10.00
2022-10-03T10:05:07.082Z,9.90
2022-10-03T10:10:38.557Z,9.90
2022-10-03T10:15:49.584Z,9.90
2022-10-03T10:21:16.100Z,9.90
2022-10-03T10:26:29.359Z,10.10
2022-10-03T10:31:54.150Z,10.00
2022-10-03T10:37:31.773Z,10.00
2022-10-03T10:43:12.599Z,10.00
2022-10-03T10:48:37.118Z,10.00
2022-10-03T10:54:08.132Z,10.00
2022-10-03T10:59:33.254Z,10.20
2022-10-03T11:04:58.610Z,10.20
2022-10-03T11:10:25.544Z,10.30
2022-10-03T11:16:03.124Z,10.30
2022-10-03T11:21:35.241Z,10.30
2022-10-03T11:27:18.562Z,10.30
2022-10-03T11:32:36.620Z,10.20
2022-10-03T11:38:07.678Z,10.20
2022-10-03T11:43:50.851Z,10.40
2022-10-03T11:49:04.916Z,10.30
2022-10-03T11:54:32.514Z,10.30
2022-10-03T11:59:41.130Z,10.30
2022-10-03T12:04:55.922Z,10.20
2022-10-03T12:10:24.511Z,10.20
2022-10-03T12:15:36.769Z,10.30
2022-10-03T12:21:07.115Z,10.40
2022-10-03T12:26:16.272Z,10.30
2022-10-03T12:31:35.001Z,10.30
2022-10-03T12:36:56.542Z,10.30
2022-10-03T12:42:08.061Z,10.20
2022-10-03T12:47:56.650Z,10.00
2022-10-03T12:52:50.292Z,10.10
2022-10-03T12:58:22.497Z,10.20
2022-10-03T13:03:47.402Z,10.20
2022-10-03T13:09:22.553Z,10.20
2022-10-03T13:14:33.362Z,10.30
2022-10-03T13:20:00.581Z,10.50
2022-10-03T13:25:21.797Z,10.60
2022-10-03T13:30:33.343Z,10.50
2022-10-03T13:36:00.420Z,10.60
2022-10-03T13:41:13.791Z,10.50
2022-10-03T13:46:22.859Z,10.60
2022-10-03T13:51:34.716Z,10.50
2022-10-03T13:56:48.307Z,10.40
2022-10-03T14:02:12.669Z,10.60
2022-10-03T14:07:38.393Z,10.60
2022-10-03T14:13:02.970Z,10.60
2022-10-03T14:18:35.869Z,10.70
2022-10-03T14:23:45.829Z,10.90
2022-10-03T14:29:03.894Z,10.90
2022-10-03T14:34:18.569Z,10.90
2022-10-03T14:39:58.885Z,10.80
2022-10-03T14:45:21.007Z,10.80
2022-10-03T14:50:30.402Z,10.90
2022-10-03T14:56:01.070Z,10.90
2022-10-03T15:01:19.783Z,10.80
2022-10-03T15:06:52.336Z,10.90
2022-10-03T15:12:18.672Z,10.80
2022-10-03T15:17:32.223Z,10.80
2022-10-03T15:22:42.833Z,10.80
2022-10-03T15:27:51.367Z,10.80
2022-10-03T15:33:00.721Z,10.90
2022-10-03T15:38:11.781Z,10.90
2022-10-03T15:43:23.080Z,10.90
2022-10-03T15:48:31.074Z,11.00
2022-10-03T15:53:41.171Z,11.00
2022-10-03T15:59:01.323Z,11.10
2022-10-03T16:04:10.043Z,11.00
2022-10-03T16:09:36.636Z,10.90
2022-10-03T16:14:48.683Z,10.80
2022-10-03T16:19:59.525Z,10.60
2022-10-03T16:25:19.981Z,10.70
2022-10-03T16:30:31.277Z,10.70
2022-10-03T16:35:39.746Z,10.80
2022-10-03T16:40:56.741Z,10.70
2022-10-03T16:46:08.116Z,10.80
2022-10-03T16:51:28.246Z,10.80
2022-10-03T16:56:39.799Z,10.80
2022-10-03T17:01:49.225Z,10.80
2022-10-03T17:07:06.850Z,10.80
2022-10-03T17:12:25.113Z,10.80
2022-10-03T17:17:46.694Z,10.80
2022-10-03T17:23:00.811Z,10.90
2022-10-03T17:28:08.960Z,10.90
2022-10-03T17:33:23.717Z,10.90
2022-10-03T17:38:55.840Z,10.90
2022-10-03T17:44:21.157Z,10.90
2022-10-03T17:49:52.500Z,10.90
2022-10-03T17:55:04.451Z,10.90
2022-10-03T18:00:19.397Z,11.00
2022-10-03T18:05:37.243Z,11.00
2022-10-03T18:10:45.572Z,11.10
2022-10-03T18:16:14.070Z,11.00
2022-10-03T18:21:23.845Z,11.00
2022-10-03T18:26:32.913Z,11.10
2022-10-03T18:31:45.550Z,11.00
2022-10-03T18:36:56.091Z,11.00
2022-10-03T18:42:03.495Z,11.00
2022-10-03T18:47:28.003Z,11.10
2022-10-03T18:52:42.783Z,11.10
2022-10-03T18:58:05.870Z,11.20
2022-10-03T19:03:22.170Z,11.20
2022-10-03T19:08:39.928Z,11.20
2022-10-03T19:13:54.352Z,11.20
2022-10-03T19:19:07.331Z,11.20
2022-10-03T19:24:30.730Z,11.30
2022-10-03T19:29:36.862Z,11.30
2022-10-03T19:34:45.626Z,11.30
2022-10-03T19:39:51.087Z,11.30
2022-10-03T19:45:00.847Z,11.20
2022-10-03T19:50:16.857Z,11.20
2022-10-03T19:55:33.875Z,11.20
2022-10-03T20:00:41.503Z,11.20
2022-10-03T20:06:08.047Z,11.10
2022-10-03T20:11:47.512Z,11.10
2022-10-03T20:16:55.533Z,11.00
2022-10-03T20:22:04.068Z,10.90
2022-10-03T20:27:33.385Z,10.90
2022-10-03T20:32:42.327Z,10.90
2022-10-03T20:37:54.955Z,10.90
2022-10-03T20:43:23.978Z,10.90
2022-10-03T20:48:32.504Z,10.80
2022-10-03T20:53:40.528Z,10.80
2022-10-03T20:58:51.412Z,10.70
2022-10-03T21:04:14.902Z,10.70
2022-10-03T21:09:23.324Z,10.70
2022-10-03T21:14:33.703Z,10.60
2022-10-03T21:19:41.685Z,10.50
2022-10-03T21:24:59.426Z,10.60
2022-10-03T21:30:16.169Z,10.60
2022-10-03T21:35:41.009Z,10.60
2022-10-03T21:41:20.021Z,10.70
2022-10-03T21:46:45.470Z,10.70
2022-10-03T21:52:01.494Z,10.60
2022-10-03T21:57:18.734Z,10.70
2022-10-03T22:02:42.130Z,10.70
2022-10-03T22:07:47.632Z,10.70
2022-10-03T22:12:55.704Z,10.70
2022-10-03T22:18:12.289Z,10.70
2022-10-03T22:23:40.441Z,10.70
2022-10-03T22:29:12.677Z,10.70
2022-10-03T22:34:33.460Z,10.70
2022-10-03T22:39:40.210Z,10.70
2022-10-03T22:44:48.642Z,10.70
2022-10-03T22:49:59.524Z,10.70
2022-10-03T22:55:08.013Z,10.70
2022-10-03T23:00:19.219Z,10.70
2022-10-03T23:05:33.423Z,10.70
2022-10-03T23:10:51.337Z,10.80
2022-10-03T23:16:00.059Z,10.70
2022-10-03T23:21:12.950Z,10.80
2022-10-03T23:26:36.816Z,10.70
2022-10-03T23:32:01.361Z,10.70
2022-10-03T23:37:18.668Z,10.70
2022-10-03T23:42:35.821Z,10.70
2022-10-03T23:47:52.852Z,10.70
2022-10-03T23:52:59.548Z,10.70
2022-10-03T23:58:08.280Z,10.70
